Time;durP1;ratioP1;P1;durP2;ratioP2;P2;SDS_P1;SDS_P2;PMS_P1;PMS_P2;Temp;Humidity;BMP_temperature;BMP_pressure;BME280_temperature;BME280_humidity;BME280_pressure;Samples;Min_cycle;Max_cycle;Signal;HPM_P1;HPM_P2
2022/12/25 05:48:38;;;;;;;21.07;17.20;;;;;;;4.97;89.81;100688.30;1771577;79;21785;-70
2022/12/25 05:51:07;;;;;;;22.30;16.90;;;;;;;5.01;88.70;100689.51;1762067;80;20975;-67
2022/12/25 05:53:35;;;;;;;18.77;16.25;;;;;;;5.06;88.01;100688.33;1783018;79;21760;-68
2022/12/25 05:56:04;;;;;;;18.50;15.40;;;;;;;5.08;87.31;100691.58;1793231;79;20943;-68
2022/12/25 05:58:32;;;;;;;19.25;15.20;;;;;;;5.08;86.50;100692.39;1806660;79;20968;-68
2022/12/25 06:00:58;;;;;;;19.15;15.18;;;;;;;5.09;85.86;100701.13;1807089;79;21045;-69
2022/12/25 06:03:25;;;;;;;19.27;15.13;;;;;;;5.08;85.22;100698.20;1751594;79;21026;-69
2022/12/25 06:05:53;;;;;;;19.85;14.78;;;;;;;5.06;84.68;100701.05;1782551;80;21133;-71
2022/12/25 06:08:20;;;;;;;16.65;13.55;;;;;;;5.08;84.43;100699.00;1782205;80;20986;-70
2022/12/25 06:10:46;;;;;;;15.08;12.25;;;;;;;5.13;84.03;100703.64;1783558;79;21034;-69
2022/12/25 06:13:14;;;;;;;16.82;13.43;;;;;;;5.14;83.69;100710.58;1760391;80;21003;-68
2022/12/25 06:15:41;;;;;;;14.75;12.33;;;;;;;5.17;83.24;100718.89;1746002;80;21537;-68
2022/12/25 06:18:08;;;;;;;16.12;13.08;;;;;;;5.17;82.91;100714.11;1743151;80;21474;-68
2022/12/25 06:20:35;;;;;;;17.32;12.43;;;;;;;5.19;82.55;100718.66;1737715;80;21026;-68
2022/12/25 06:23:01;;;;;;;16.73;12.78;;;;;;;5.18;82.28;100719.18;1733452;80;21495;-68
2022/12/25 06:25:28;;;;;;;14.75;12.07;;;;;;;5.21;81.97;100722.43;1745803;80;21046;-69
2022/12/25 12:04:54;;;;;;;9.97;8.77;;;;;;;5.22;88.63;100984.89;1806198;77;22055;-69
2022/12/25 12:07:28;;;;;;;11.60;9.33;;;;;;;5.23;87.31;100983.38;1514015;79;9999927;-69
2022/12/25 12:10:12;;;;;;;8.95;7.47;;;;;;;5.26;86.45;100985.57;1756444;80;21098;-68
2022/12/25 12:12:56;;;;;;;10.95;8.80;;;;;;;5.28;85.51;100987.50;1766507;80;21035;-69
2022/12/25 12:15:36;;;;;;;9.60;7.97;;;;;;;5.33;84.84;100998.78;1770167;80;21073;-68
2022/12/25 12:18:22;;;;;;;11.08;8.40;;;;;;;5.33;84.00;100993.00;1757781;80;21251;-69
2022/12/25 12:21:23;;;;;;;10.20;7.83;;;;;;;5.37;83.36;100992.87;1773466;80;20940;-68
2022/12/25 12:24:01;;;;;;;8.98;6.70;;;;;;;5.40;82.86;100992.96;1773286;80;21054;-69
2022/12/25 12:26:35;;;;;;;10.30;7.55;;;;;;;5.40;82.14;100997.74;1771587;79;21039;-69
2022/12/25 12:29:05;;;;;;;9.43;6.90;;;;;;;5.39;81.53;101005.88;1527668;80;10000064;-73
2022/12/25 12:31:41;;;;;;;9.60;6.70;;;;;;;5.36;80.98;101015.09;1758007;80;27028;-69
2022/12/25 12:34:39;;;;;;;8.45;6.22;;;;;;;5.35;80.58;101026.69;1762346;80;21094;-68
2022/12/25 12:37:28;;;;;;;10.05;6.95;;;;;;;5.35;80.26;101020.06;1728151;80;21050;-70
2022/12/25 12:39:55;;;;;;;10.80;7.45;;;;;;;5.35;79.75;101034.63;1770528;80;21827;-69
2022/12/25 12:42:30;;;;;;;8.58;6.03;;;;;;;5.38;79.54;101026.78;1758149;80;21078;-69
2022/12/25 12:45:06;;;;;;;10.30;7.17;;;;;;;5.39;79.23;101039.80;1761051;79;21518;-70
2022/12/25 12:47:42;;;;;;;12.13;7.67;;;;;;;5.44;78.99;101039.70;1768256;79;22188;-69
2022/12/25 12:50:34;;;;;;;11.15;7.55;;;;;;;5.44;78.64;101041.03;1754472;80;21087;-70
2022/12/25 12:53:25;;;;;;;9.90;7.30;;;;;;;5.42;78.36;101046.53;1755729;80;21043;-70
2022/12/25 12:55:52;;;;;;;10.20;7.15;;;;;;;5.45;78.19;101042.65;1758174;79;21031;-69
2022/12/25 12:58:34;;;;;;;9.75;6.70;;;;;;;5.47;77.92;101041.94;1755321;80;21092;-69
2022/12/25 13:01:21;;;;;;;12.25;7.70;;;;;;;5.47;77.60;101045.91;1746299;80;21031;-69
2022/12/25 13:04:14;;;;;;;11.25;8.08;;;;;;;5.48;77.56;101040.39;1763103;80;20996;-70
2022/12/25 13:06:46;;;;;;;9.93;6.72;;;;;;;5.50;77.29;101050.79;1785552;79;21845;-70
2022/12/25 13:09:27;;;;;;;10.78;6.70;;;;;;;5.51;77.08;101053.73;1772789;80;21086;-68
2022/12/25 13:11:55;;;;;;;11.03;7.87;;;;;;;5.52;76.82;101056.67;1772817;80;21078;-68
2022/12/25 13:14:23;;;;;;;11.15;7.62;;;;;;;5.54;76.50;101054.64;1772813;80;21038;-69
2022/12/25 13:16:52;;;;;;;11.12;7.95;;;;;;;5.52;76.46;101060.65;1773061;80;21038;-68
2022/12/25 13:19:25;;;;;;;12.10;8.03;;;;;;;5.52;76.38;101057.48;1757949;80;21630;-67
2022/12/25 13:21:59;;;;;;;11.48;8.50;;;;;;;5.52;76.16;101061.97;1762619;80;21324;-68
2022/12/25 13:24:31;;;;;;;12.98;9.08;;;;;;;5.53;76.16;101060.97;1765522;79;21093;-68
2022/12/25 13:26:58;;;;;;;12.18;8.98;;;;;;;5.58;76.06;101071.73;1792738;78;21090;-68
2022/12/25 13:29:36;;;;;;;12.05;8.45;;;;;;;5.58;75.94;101080.49;1770861;80;21082;-68
2022/12/25 13:32:05;;;;;;;11.33;8.05;;;;;;;5.64;75.89;101078.84;1750496;79;21791;-68
2022/12/25 13:34:38;;;;;;;11.12;8.40;;;;;;;5.66;75.71;101087.41;1771385;80;21074;-68
2022/12/25 13:37:18;;;;;;;12.00;8.68;;;;;;;5.68;75.64;101089.31;1738984;80;21094;-68
2022/12/25 13:39:55;;;;;;;11.95;8.08;;;;;;;5.73;75.58;101094.00;1750116;80;21094;-68
2022/12/25 13:42:25;;;;;;;11.20;8.40;;;;;;;5.78;75.50;101100.27;1752789;80;21542;-68
2022/12/25 13:44:59;;;;;;;11.22;7.78;;;;;;;5.85;75.44;101105.02;1793238;79;21577;-68
2022/12/25 13:47:33;;;;;;;11.30;8.08;;;;;;;5.90;75.35;101098.30;1771016;79;21066;-69
2022/12/25 13:50:19;;;;;;;10.85;7.85;;;;;;;6.02;75.16;101104.55;1777475;79;21025;-69
2022/12/25 13:52:46;;;;;;;10.93;7.53;;;;;;;6.02;75.04;101109.86;1768316;80;21012;-69
2022/12/25 13:55:17;;;;;;;11.35;8.00;;;;;;;6.00;74.80;101107.44;1751959;79;21169;-68
2022/12/25 13:57:58;;;;;;;11.63;8.20;;;;;;;6.00;74.62;101111.93;1769042;80;21118;-69
2022/12/25 14:00:32;;;;;;;11.85;8.13;;;;;;;5.97;74.45;101109.70;1772027;80;21292;-68
2022/12/25 14:02:59;;;;;;;11.33;8.25;;;;;;;5.91;74.28;101113.97;1773474;80;21007;-68
2022/12/25 14:05:31;;;;;;;12.75;9.48;;;;;;;5.86;74.19;101115.95;1761410;80;21426;-68
2022/12/25 14:08:02;;;;;;;11.78;9.60;;;;;;;5.82;74.05;101120.54;1761782;80;21695;-69
2022/12/25 14:10:33;;;;;;;15.45;10.45;;;;;;;5.75;74.04;101119.77;1763287;80;21557;-68
2022/12/25 14:13:03;;;;;;;15.13;10.98;;;;;;;5.70;74.04;101117.76;1759878;80;21707;-68
2022/12/25 14:15:31;;;;;;;14.58;10.78;;;;;;;5.70;74.08;101120.41;1762128;80;21612;-68
2022/12/25 14:17:58;;;;;;;14.25;10.08;;;;;;;5.71;74.08;101124.67;1767251;80;21621;-69
2022/12/25 14:20:29;;;;;;;15.15;10.45;;;;;;;5.71;74.06;101126.52;1772301;80;21151;-69
2022/12/25 14:22:57;;;;;;;12.53;8.93;;;;;;;5.68;73.96;101131.72;1772178;79;21503;-68
2022/12/25 14:25:32;;;;;;;14.93;11.15;;;;;;;5.67;73.92;101139.89;1767758;80;21031;-68
2022/12/25 14:27:59;;;;;;;14.28;10.58;;;;;;;5.67;73.91;101141.22;1767992;80;21355;-69
2022/12/25 14:30:27;;;;;;;14.85;11.05;;;;;;;5.68;73.81;101142.84;1770665;80;21544;-69
2022/12/25 14:32:54;;;;;;;16.52;11.65;;;;;;;5.63;73.77;101144.29;1755748;80;21509;-69
2022/12/25 14:35:22;;;;;;;14.93;10.95;;;;;;;5.64;73.79;101138.47;1768745;80;21137;-68
2022/12/25 14:37:58;;;;;;;13.50;10.38;;;;;;;5.67;73.76;101146.52;1771172;80;21740;-69
2022/12/25 14:40:31;;;;;;;16.20;11.45;;;;;;;5.65;73.71;101152.02;1765535;80;21058;-69
2022/12/25 14:43:03;;;;;;;15.10;10.50;;;;;;;5.65;73.72;101155.47;1769999;80;21055;-68
2022/12/25 14:45:37;;;;;;;16.52;10.78;;;;;;;5.67;73.70;101157.94;1772284;80;21074;-68
2022/12/25 14:48:18;;;;;;;15.38;9.68;;;;;;;5.71;73.68;101157.81;1770402;80;21183;-69
2022/12/25 14:50:59;;;;;;;13.60;10.13;;;;;;;5.75;73.61;101167.48;1771111;80;20955;-68
2022/12/25 14:53:31;;;;;;;13.43;9.68;;;;;;;5.74;73.47;101171.16;1772488;80;21039;-68
2022/12/25 14:55:58;;;;;;;14.45;9.63;;;;;;;5.74;73.47;101171.16;1766728;80;21102;-68
2022/12/25 14:58:27;;;;;;;14.07;10.63;;;;;;;5.75;73.40;101168.80;1761032;80;21074;-69
2022/12/25 15:01:00;;;;;;;14.40;9.95;;;;;;;5.75;73.42;101165.63;1776574;79;21098;-69
2022/12/25 15:03:34;;;;;;;14.18;10.85;;;;;;;5.80;73.38;101173.78;1764932;80;21015;-69
2022/12/25 15:06:05;;;;;;;15.60;11.08;;;;;;;5.76;73.18;101179.21;1765415;79;21004;-70
2022/12/25 15:08:33;;;;;;;16.65;11.63;;;;;;;5.74;73.16;101185.73;1784471;79;21027;-69
2022/12/25 15:10:59;;;;;;;18.35;13.03;;;;;;;5.75;73.09;101186.03;1789269;79;21093;-69
2022/12/25 15:13:26;;;;;;;23.02;14.95;;;;;;;5.74;73.04;101189.71;1772671;79;21123;-69
2022/12/25 15:16:07;;;;;;;50.65;27.60;;;;;;;5.75;73.02;101187.36;1772706;80;21032;-69
2022/12/25 15:18:43;;;;;;;43.68;25.40;;;;;;;5.72;72.91;101197.86;1750993;80;21209;-68
2022/12/25 15:21:21;;;;;;;21.93;14.85;;;;;;;5.68;72.86;101206.45;1772711;80;21023;-68
2022/12/25 15:23:48;;;;;;;21.70;12.98;;;;;;;5.67;72.91;101216.75;1767595;79;21031;-68
2022/12/25 15:26:15;;;;;;;16.07;11.73;;;;;;;5.64;72.84;101215.33;1756828;80;21183;-68
2022/12/25 15:28:41;;;;;;;20.70;12.53;;;;;;;5.63;72.85;101215.03;1752766;80;21512;-68
2022/12/25 15:31:27;;;;;;;17.77;11.97;;;;;;;5.62;72.91;101218.17;1779986;79;21106;-69
2022/12/25 15:33:56;;;;;;;18.60;12.82;;;;;;;5.67;72.88;101219.41;1766126;80;21568;-70
2022/12/25 15:36:25;;;;;;;21.52;15.45;;;;;;;5.69;72.75;101221.31;1778302;79;21028;-69
2022/12/25 15:38:51;;;;;;;20.88;14.15;;;;;;;5.63;72.72;101228.28;1769966;80;21410;-69
2022/12/25 15:44:07;;;;;;;20.77;13.75;;;;;;;5.59;72.74;101222.59;1753626;79;20960;-69
2022/12/25 15:46:34;;;;;;;22.73;14.70;;;;;;;5.56;72.71;101222.16;1747328;80;20964;-69
2022/12/25 15:49:01;;;;;;;20.60;13.05;;;;;;;5.49;72.64;101224.83;1751329;79;20980;-68
2022/12/25 15:51:28;;;;;;;16.57;11.28;;;;;;;5.47;72.57;101225.56;1758114;80;22204;-69
2022/12/25 15:53:55;;;;;;;17.48;12.07;;;;;;;5.40;72.43;101227.41;1735296;80;21161;-69
2022/12/25 15:56:22;;;;;;;15.78;11.33;;;;;;;5.32;72.38;101222.31;1758289;80;20996;-69
2022/12/25 15:58:48;;;;;;;16.65;11.57;;;;;;;5.27;72.42;101227.42;1755507;80;21026;-69
2022/12/25 16:01:17;;;;;;;16.25;11.90;;;;;;;5.22;72.52;101233.31;1755845;80;20956;-69
2022/12/25 16:03:45;;;;;;;17.67;12.23;;;;;;;5.16;72.65;101235.45;1773734;79;21030;-68
2022/12/25 16:06:15;;;;;;;16.75;11.12;;;;;;;5.14;72.76;101230.89;1773863;80;21597;-68
2022/12/25 16:08:42;;;;;;;16.48;11.20;;;;;;;5.14;72.82;101234.35;1760130;80;21119;-68
2022/12/25 16:11:09;;;;;;;17.85;11.90;;;;;;;5.15;72.82;101236.48;1753166;80;21012;-68
2022/12/25 16:13:36;;;;;;;17.67;12.20;;;;;;;5.15;72.81;101232.52;1745336;80;21004;-68
2022/12/25 16:16:03;;;;;;;19.05;12.82;;;;;;;5.16;72.83;101236.78;1746063;80;21137;-68
2022/12/25 16:18:31;;;;;;;18.95;12.55;;;;;;;5.17;72.82;101234.45;1752890;79;21086;-69
2022/12/25 16:20:59;;;;;;;17.27;11.88;;;;;;;5.22;72.86;101234.64;1767740;80;21046;-69
2022/12/25 16:23:25;;;;;;;15.80;10.65;;;;;;;5.22;72.68;101239.12;1769234;80;21067;-70
2022/12/25 16:25:53;;;;;;;17.02;11.05;;;;;;;5.19;72.60;101237.70;1748929;79;21604;-69
2022/12/25 16:28:19;;;;;;;16.10;11.75;;;;;;;5.16;72.48;101238.10;1750666;79;21140;-69
2022/12/25 16:30:45;;;;;;;16.70;11.65;;;;;;;5.14;72.47;101241.48;1744183;80;21113;-69
2022/12/25 16:33:12;;;;;;;18.02;12.30;;;;;;;5.21;72.36;101243.61;1749937;80;21007;-68
2022/12/25 16:35:38;;;;;;;18.17;12.10;;;;;;;5.17;72.25;101237.91;1743849;82;21545;-69
2022/12/25 16:38:05;;;;;;;19.77;13.40;;;;;;;5.11;72.17;101243.22;1758895;80;21023;-69
2022/12/25 16:40:32;;;;;;;18.70;13.43;;;;;;;5.03;72.13;101242.88;1756600;80;21198;-69
2022/12/25 16:42:59;;;;;;;18.32;13.00;;;;;;;4.99;72.15;101242.19;1731187;80;20960;-69
2022/12/25 16:45:25;;;;;;;18.20;12.50;;;;;;;4.94;72.14;101237.51;1772660;79;21106;-70
2022/12/25 16:47:52;;;;;;;18.55;12.90;;;;;;;4.93;72.16;101240.64;1732696;80;21629;-69
2022/12/25 16:50:19;;;;;;;18.85;13.60;;;;;;;4.90;72.18;101237.58;1766346;79;21007;-69
2022/12/25 16:52:45;;;;;;;17.37;12.33;;;;;;;4.91;72.23;101241.37;1749426;80;21213;-69
2022/12/25 16:55:12;;;;;;;20.30;13.48;;;;;;;4.92;72.23;101242.98;1746640;80;20984;-68
2022/12/25 16:57:38;;;;;;;20.35;13.65;;;;;;;4.91;72.29;101241.37;1770743;80;21119;-68
2022/12/25 17:00:07;;;;;;;20.08;14.55;;;;;;;4.91;72.35;101244.02;1743526;81;21035;-68
2022/12/25 17:02:36;;;;;;;20.70;14.40;;;;;;;4.93;72.36;101246.45;1774092;80;21508;-70
2022/12/25 17:05:03;;;;;;;20.70;13.32;;;;;;;4.94;72.37;101247.59;1748211;80;21106;-67
2022/12/25 17:07:31;;;;;;;20.75;14.18;;;;;;;4.98;72.40;101245.34;1750852;80;21050;-68
2022/12/25 17:09:57;;;;;;;21.73;14.60;;;;;;;5.02;72.38;101248.40;1788710;80;21509;-69
2022/12/25 17:12:24;;;;;;;21.65;14.90;;;;;;;5.03;72.30;101253.98;1779326;80;21016;-68
2022/12/25 17:14:51;;;;;;;21.97;14.87;;;;;;;4.99;72.20;101261.53;1741897;80;21137;-69
2022/12/25 17:17:21;;;;;;;19.32;13.43;;;;;;;4.96;72.17;101265.90;1746747;81;21140;-70
2022/12/25 17:19:48;;;;;;;19.42;12.18;;;;;;;4.92;72.16;101262.84;1772940;79;20992;-68
2022/12/25 17:22:14;;;;;;;18.35;12.15;;;;;;;4.93;72.14;101274.24;1764143;80;21596;-69
2022/12/25 17:24:41;;;;;;;18.05;12.00;;;;;;;4.90;72.08;101266.22;1736304;80;21066;-69
2022/12/25 17:27:08;;;;;;;15.88;10.58;;;;;;;4.87;72.05;101273.72;1748568;80;20992;-68
2022/12/25 17:29:38;;;;;;;16.48;10.93;;;;;;;4.84;72.01;101267.02;1761811;79;21168;-68
2022/12/25 17:32:06;;;;;;;15.93;10.88;;;;;;;4.81;71.96;101274.55;1744684;80;21536;-69
2022/12/25 17:34:33;;;;;;;20.08;12.07;;;;;;;4.75;71.92;101277.48;1644251;79;9999961;-68
2022/12/25 17:37:00;;;;;;;19.17;12.53;;;;;;;4.73;72.00;101286.12;1510812;80;10000463;-68
2022/12/25 17:39:27;;;;;;;17.50;12.00;;;;;;;4.74;72.04;101287.77;1767506;80;21023;-68
2022/12/25 17:41:54;;;;;;;17.98;11.55;;;;;;;4.75;72.01;101295.20;1762348;80;20958;-68
2022/12/25 17:44:20;;;;;;;16.27;11.48;;;;;;;4.72;72.02;101289.80;1771880;80;22109;-69
2022/12/25 17:46:47;;;;;;;20.08;12.30;;;;;;;4.73;72.06;101294.06;1761313;80;21086;-68
2022/12/25 17:49:16;;;;;;;15.78;10.05;;;;;;;4.73;72.05;101296.70;1752202;80;21157;-69
2022/12/25 17:51:42;;;;;;;17.67;10.82;;;;;;;4.73;72.06;101304.64;1756396;80;21018;-69
2022/12/25 17:54:11;;;;;;;17.92;11.57;;;;;;;4.68;71.98;101303.12;1761940;80;21047;-69
2022/12/25 17:56:37;;;;;;;16.25;11.12;;;;;;;4.68;71.99;101304.45;1772171;80;21099;-68
2022/12/25 18:15:15;;;;;;;16.27;11.33;;;;;;;4.84;71.96;101303.27;1780252;79;22576;-70
2022/12/25 18:17:42;;;;;;;15.88;11.35;;;;;;;4.75;71.62;101303.95;1750670;82;21630;-67
2022/12/25 18:20:09;;;;;;;14.10;9.45;;;;;;;4.69;71.52;101308.71;1761573;80;21148;-68
2022/12/25 18:22:36;;;;;;;13.22;9.50;;;;;;;4.62;71.33;101303.91;1767713;79;22901;-68
2022/12/25 18:25:05;;;;;;;15.28;9.60;;;;;;;4.50;71.30;101307.63;1782777;80;21006;-68
2022/12/25 18:27:32;;;;;;;15.45;10.13;;;;;;;4.40;71.28;101313.28;1783139;80;21050;-68
2022/12/25 18:29:58;;;;;;;14.15;10.08;;;;;;;4.38;71.43;101338.33;1780290;80;21528;-68
2022/12/25 18:32:27;;;;;;;14.03;9.98;;;;;;;4.38;71.52;101340.46;1778097;80;21077;-69
2022/12/25 18:34:54;;;;;;;14.98;10.40;;;;;;;4.40;71.49;101344.21;1752123;81;21048;-68
2022/12/25 18:37:20;;;;;;;15.45;11.05;;;;;;;4.38;71.39;101343.61;1762146;80;20996;-67
2022/12/25 18:39:48;;;;;;;14.98;10.43;;;;;;;4.36;71.46;101346.95;1763473;80;21010;-67
2022/12/25 18:45:00;;;;;;;14.50;9.90;;;;;;;4.41;71.50;101336.09;1728090;82;21145;-68
2022/12/25 18:47:27;;;;;;;12.47;8.55;;;;;;;4.42;71.45;101338.23;1737703;82;21018;-68
2022/12/25 18:49:53;;;;;;;12.25;8.43;;;;;;;4.40;71.44;101342.38;1748324;82;21031;-69
2022/12/25 18:52:20;;;;;;;11.55;8.28;;;;;;;4.39;71.44;101342.59;1748660;82;21019;-68
2022/12/25 18:54:46;;;;;;;14.80;9.25;;;;;;;4.37;71.40;101340.64;1748474;82;21039;-67
2022/12/25 18:57:13;;;;;;;12.47;8.70;;;;;;;4.33;71.34;101345.51;1741221;82;21198;-69
2022/12/25 18:59:40;;;;;;;13.58;8.10;;;;;;;4.31;71.38;101346.23;1746174;81;21536;-69
2022/12/25 19:02:10;;;;;;;13.18;8.30;;;;;;;4.34;71.39;101350.28;1748138;82;21083;-67
2022/12/25 19:04:37;;;;;;;13.20;8.43;;;;;;;4.32;71.37;101354.97;1592900;82;10000165;-67
2022/12/25 19:07:04;;;;;;;14.95;9.65;;;;;;;4.30;71.38;101359.12;1692532;83;20962;-68
2022/12/25 19:09:31;;;;;;;14.28;8.63;;;;;;;4.27;71.36;101356.86;1710755;83;20922;-68
2022/12/25 19:11:58;;;;;;;13.00;9.28;;;;;;;4.23;71.36;101356.95;1705103;82;21041;-68
2022/12/25 19:14:27;;;;;;;10.38;7.83;;;;;;;4.20;71.34;101357.34;1720252;82;21049;-68
2022/12/25 19:16:55;;;;;;;11.10;7.85;;;;;;;4.20;71.43;101360.80;1693861;83;21112;-68
2022/12/25 19:19:22;;;;;;;10.20;7.58;;;;;;;4.21;71.45;101357.64;1681489;83;21065;-68
2022/12/25 19:21:54;;;;;;;11.33;8.78;;;;;;;4.24;71.41;101370.47;1702992;83;21061;-69
2022/12/25 19:24:20;;;;;;;11.57;9.03;;;;;;;4.23;71.34;101376.78;1689647;83;21646;-69
2022/12/25 19:26:48;;;;;;;12.03;9.03;;;;;;;4.24;71.37;101373.12;1697400;83;21068;-68
2022/12/25 19:29:15;;;;;;;13.98;9.80;;;;;;;4.26;71.37;101375.08;1699290;83;21089;-69
2022/12/25 19:31:43;;;;;;;16.20;11.15;;;;;;;4.26;71.34;101375.08;1690292;83;21116;-70
2022/12/25 19:34:21;;;;;;;12.95;8.70;;;;;;;4.25;71.26;101377.93;1690966;82;21042;-69
2022/12/25 19:36:48;;;;;;;13.88;9.03;;;;;;;4.24;71.27;101379.73;1695424;83;21169;-69
2022/12/25 19:39:22;;;;;;;12.53;8.73;;;;;;;4.25;71.24;101377.93;1707092;83;20983;-70
2022/12/25 19:41:52;;;;;;;12.28;8.65;;;;;;;4.27;71.28;101379.34;1684284;83;21601;-70
2022/12/25 19:44:19;;;;;;;12.40;8.58;;;;;;;4.30;71.31;101380.78;1693766;83;21346;-69
2022/12/25 19:46:46;;;;;;;17.30;9.35;;;;;;;4.29;71.31;101374.69;1714439;82;21432;-69
2022/12/25 19:49:13;;;;;;;11.95;7.80;;;;;;;4.28;71.25;101377.51;1710571;83;21469;-69
2022/12/25 19:51:43;;;;;;;10.78;8.33;;;;;;;4.24;71.23;101386.34;1707113;83;21054;-69
2022/12/25 19:54:14;;;;;;;11.68;8.75;;;;;;;4.20;71.16;101386.42;1694123;83;21108;-69
2022/12/25 19:56:41;;;;;;;;;;;;;;;4.17;71.14;101394.23;1698010;83;21122;-68
2022/12/25 19:59:10;;;;;;;13.70;8.80;;;;;;;4.14;71.10;101400.41;1694087;83;20189;-70
2022/12/25 20:01:37;;;;;;;15.43;9.48;;;;;;;4.07;71.12;101397.73;1658406;83;21752;-69
2022/12/25 20:04:07;;;;;;;16.50;10.58;;;;;;;4.06;71.15;101403.22;1691046;83;21092;-69
2022/12/25 20:06:34;;;;;;;12.73;9.23;;;;;;;4.06;71.21;101401.39;1579882;82;10000299;-69
2022/12/25 20:09:05;;;;;;;13.77;9.43;;;;;;;4.11;71.27;101400.29;1703629;83;21009;-69
2022/12/25 20:11:33;;;;;;;11.85;8.68;;;;;;;4.16;71.26;101401.05;1697746;83;21216;-70
2022/12/25 20:14:00;;;;;;;11.68;8.33;;;;;;;4.22;71.00;101395.80;1684767;83;21091;-69
2022/12/25 20:16:28;;;;;;;12.55;8.73;;;;;;;4.13;71.07;101401.44;1684769;82;21553;-69
2022/12/25 20:18:56;;;;;;;11.43;8.95;;;;;;;4.06;71.00;101407.19;1699276;83;21904;-70
2022/12/25 20:21:23;;;;;;;9.85;7.15;;;;;;;3.99;71.09;101406.63;1672767;83;21095;-69
2022/12/25 20:23:51;;;;;;;11.93;8.85;;;;;;;3.99;71.19;101406.63;1672860;84;21107;-69
2022/12/25 20:26:20;;;;;;;12.30;8.48;;;;;;;3.97;71.19;101400.71;1690783;83;21108;-68
2022/12/25 20:28:47;;;;;;;12.30;9.00;;;;;;;3.93;71.20;101400.78;1645812;86;21184;-68
2022/12/25 20:31:18;;;;;;;12.78;9.65;;;;;;;3.93;71.32;101402.11;1677860;84;21823;-68
2022/12/25 20:33:45;;;;;;;12.03;9.50;;;;;;;3.98;71.42;101409.45;1690579;83;26883;-70
2022/12/25 20:36:12;;;;;;;10.45;7.90;;;;;;;4.02;71.41;101412.05;1680844;83;21075;-69
2022/12/25 20:38:39;;;;;;;13.15;8.43;;;;;;;4.06;71.41;101411.16;1671640;83;21571;-69
2022/12/25 20:41:12;;;;;;;10.90;8.43;;;;;;;4.07;71.36;101409.63;1680040;83;21127;-69
2022/12/25 20:43:40;;;;;;;12.53;8.80;;;;;;;4.07;71.32;101416.23;1683176;83;21084;-69
2022/12/25 20:46:06;;;;;;;11.65;9.10;;;;;;;4.09;71.30;101420.02;1694881;83;21118;-69
2022/12/25 20:48:34;;;;;;;12.70;8.33;;;;;;;4.10;71.31;101416.36;1680136;84;21143;-69
2022/12/25 20:51:16;;;;;;;10.38;8.05;;;;;;;4.13;71.25;101417.30;1681925;83;21461;-69
2022/12/25 20:53:44;;;;;;;11.12;8.03;;;;;;;4.16;71.19;101416.91;1685711;83;21074;-68
2022/12/25 20:56:12;;;;;;;10.63;7.95;;;;;;;4.13;70.89;101420.75;1676095;84;22129;-70
2022/12/25 20:58:39;;;;;;;9.58;7.60;;;;;;;4.08;70.69;101421.02;1686995;83;21191;-69
2022/12/25 21:01:10;;;;;;;9.20;7.10;;;;;;;4.00;70.50;101421.98;1663415;85;21065;-70
2022/12/25 21:03:37;;;;;;;;;;;;;;;3.94;70.33;101424.06;1672640;84;21189;-69
2022/12/25 21:06:05;;;;;;;10.43;7.78;;;;;;;3.86;70.28;101432.96;1665359;84;20187;-69
2022/12/25 21:08:31;;;;;;;10.90;7.67;;;;;;;3.84;70.36;101442.08;1699099;83;21234;-69
2022/12/25 21:11:02;;;;;;;11.33;7.78;;;;;;;3.83;70.37;101445.74;1697674;83;21077;-68
2022/12/25 21:13:33;;;;;;;11.65;8.48;;;;;;;3.85;70.46;101459.09;1680253;83;21042;-69
2022/12/25 21:16:00;;;;;;;11.33;8.23;;;;;;;3.89;70.47;101457.69;1699516;83;21028;-69
2022/12/25 21:18:27;;;;;;;11.25;8.33;;;;;;;3.92;70.42;101459.14;1689558;83;21095;-69
2022/12/25 21:20:56;;;;;;;11.70;8.73;;;;;;;3.93;70.33;101456.80;1698678;83;22199;-69
2022/12/25 21:23:25;;;;;;;12.15;8.98;;;;;;;3.87;70.25;101454.41;1687933;83;21092;-69
2022/12/25 21:25:53;;;;;;;13.15;9.15;;;;;;;3.85;70.30;101457.77;1690930;83;21116;-69
2022/12/25 21:28:21;;;;;;;12.63;9.08;;;;;;;3.85;70.28;101456.44;1694653;83;21164;-69
2022/12/25 21:30:47;;;;;;;13.22;9.28;;;;;;;3.83;70.28;101453.67;1704236;83;21171;-69
2022/12/25 21:36:10;;;;;;;14.55;10.63;;;;;;;3.77;70.31;101449.95;1695739;82;21072;-69
2022/12/25 21:38:37;;;;;;;16.57;10.60;;;;;;;3.78;70.38;101452.09;1690198;83;21579;-69
2022/12/25 21:41:07;;;;;;;14.43;9.93;;;;;;;3.80;70.36;101452.73;1685749;83;21681;-69
2022/12/25 21:43:34;;;;;;;14.43;10.15;;;;;;;3.83;70.33;101450.52;1678859;83;21091;-69
2022/12/25 21:46:04;;;;;;;14.65;9.83;;;;;;;3.86;70.35;101447.50;1689761;83;22121;-69
2022/12/25 21:48:31;;;;;;;13.20;9.27;;;;;;;3.90;70.07;101446.10;1567852;83;10000550;-69
2022/12/25 21:53:50;;;;;;;10.15;7.75;;;;;;;3.91;69.99;101449.05;1654588;85;21075;-69
2022/12/25 21:56:17;;;;;;;10.45;7.47;;;;;;;3.90;69.92;101443.45;1700435;82;21772;-69
2022/12/25 21:58:43;;;;;;;11.22;8.40;;;;;;;3.88;69.83;101444.17;1668320;84;21072;-69
2022/12/25 22:01:10;;;;;;;11.53;7.97;;;;;;;3.87;69.81;101450.44;1676941;84;21116;-69
2022/12/25 22:03:37;;;;;;;10.93;7.75;;;;;;;3.86;69.75;101465.19;1678174;84;21120;-70
2022/12/25 22:08:50;;;;;;;10.60;8.05;;;;;;;3.83;69.52;101459.77;1684332;84;21122;-69
2022/12/25 22:19:48;;;;;;;10.28;7.28;;;;;;;3.85;69.41;101447.20;1696989;83;21181;-69
2022/12/25 22:22:19;;;;;;;10.32;7.67;;;;;;;3.88;69.40;101445.49;1674452;84;25888;-67
2022/12/25 22:24:47;;;;;;;11.05;7.90;;;;;;;3.90;69.27;101440.00;1669742;84;21593;-67
2022/12/25 22:27:13;;;;;;;10.18;7.92;;;;;;;3.87;69.20;101438.55;1690312;84;21594;-68
2022/12/25 22:29:40;;;;;;;9.98;7.97;;;;;;;3.92;69.26;101434.84;1691712;83;21064;-68
2022/12/25 22:32:08;;;;;;;10.28;7.83;;;;;;;3.98;69.21;101430.13;1679783;84;21115;-68
2022/12/25 22:34:35;;;;;;;10.45;7.50;;;;;;;4.04;69.17;101431.66;1674690;83;21144;-68
2022/12/25 22:37:01;;;;;;;11.55;8.43;;;;;;;4.05;69.07;101430.17;1674720;84;21076;-68
2022/12/25 22:39:28;;;;;;;11.73;8.90;;;;;;;4.02;68.99;101423.13;1574982;82;9999702;-68
2022/12/25 22:41:57;;;;;;;10.95;8.05;;;;;;;4.05;69.04;101430.65;1687885;83;21056;-66
2022/12/25 22:44:25;;;;;;;10.38;7.55;;;;;;;4.09;69.03;101429.28;1689991;83;21662;-68
2022/12/25 22:46:51;;;;;;;10.68;8.13;;;;;;;4.10;68.98;101434.86;1656189;84;21066;-68
2022/12/25 22:49:18;;;;;;;10.28;7.83;;;;;;;4.14;68.98;101440.08;1677830;84;21140;-67
2022/12/25 22:51:45;;;;;;;10.85;7.95;;;;;;;4.17;68.87;101435.72;1672955;83;21068;-68
2022/12/25 22:54:12;;;;;;;10.82;8.15;;;;;;;4.19;68.82;101437.69;1663662;85;21756;-68
2022/12/25 22:56:43;;;;;;;12.88;8.90;;;;;;;4.21;68.78;101434.32;1685743;83;21142;-68
2022/12/25 22:59:11;;;;;;;11.20;8.23;;;;;;;4.25;68.73;101441.39;1679674;83;21361;-68
2022/12/25 23:01:39;;;;;;;14.53;9.05;;;;;;;4.26;68.71;101444.34;1669168;84;21104;-68
2022/12/25 23:04:06;;;;;;;12.63;8.53;;;;;;;4.30;68.67;101445.07;1689700;83;21563;-69
2022/12/25 23:06:34;;;;;;;12.47;9.20;;;;;;;4.34;68.59;101447.63;1672425;83;21079;-68
2022/12/25 23:09:00;;;;;;;11.33;8.60;;;;;;;4.37;68.49;101445.92;1682182;83;21342;-68
2022/12/25 23:11:29;;;;;;;11.48;8.75;;;;;;;4.36;68.35;101442.98;1670132;84;21167;-68
2022/12/25 23:16:41;;;;;;;10.50;8.13;;;;;;;4.30;68.21;101457.48;1688635;82;21100;-68
2022/12/25 23:27:23;;;;;;;11.68;8.60;;;;;;;4.29;68.22;101461.14;1693051;83;21076;-68
2022/12/25 23:29:50;;;;;;;10.95;7.70;;;;;;;4.28;68.16;101464.30;1681728;83;21036;-68
2022/12/25 23:32:23;;;;;;;10.30;7.78;;;;;;;4.27;68.07;101466.61;1696511;83;21623;-68
2022/12/25 23:34:51;;;;;;;11.40;8.40;;;;;;;4.26;68.05;101461.53;1692485;83;21196;-68
2022/12/25 23:37:18;;;;;;;11.70;8.18;;;;;;;4.25;68.01;101462.04;1697533;83;21626;-68
2022/12/25 23:39:47;;;;;;;11.03;7.87;;;;;;;4.25;67.95;101467.33;1701152;83;21084;-68
2022/12/25 23:42:14;;;;;;;11.05;7.87;;;;;;;4.20;67.87;101471.04;1697452;82;21081;-68
2022/12/25 23:44:40;;;;;;;12.82;8.65;;;;;;;4.16;67.91;101468.47;1682909;83;21085;-68
2022/12/25 23:47:07;;;;;;;10.30;7.72;;;;;;;4.09;67.88;101480.32;1683710;84;21803;-69